Waverly, VA

6:24 AM EDT on September 01, 2015 (GMT -0400)
Wakefield Municipal | | Change Station
CLOSE
Current Station
Airport
Location: Wakefield,
Elevation: 112 ft
Nearby Weather Stations

Elev 112 ft 36.98 °N, 77.01 °W | Updated 11 minutes ago

Overcast
Overcast
72 °F
Feels Like 72 °F
N
0
Wind Variable Wind from North

Today
High -- | Low -- °F
--% Chance of Precip.
Yesterday
High -- | Low -- °F
Precip. -- in
6:38 AM 7:36 PM
Waning Gibbous, 90% visible
Pressure 30.06 in
Visibility 6.0 miles
Clouds Overcast 500 ft
Dew Point 69 °F
Humidity 91%
Rainfall 0.00 in
Snow Depth Not available.
UV 0 out of 12
Pollen 8.90 out of 12
Air Quality Not available.
Flu Activity Not available.
SPECI KAKQ 011013Z AUTO 00000KT 6SM BR OVC005 22/21 A3006 RMK AO2 CIG 003V010 T02220206 TSNO
Pressure 30.06 in
Visibility 6.0 miles
Clouds Overcast 500 ft
Dew Point 69 °F
Humidity 91%
Rainfall 0.00 in
Snow Depth Not available.
UV 0 out of 12
Pollen 8.90 out of 12
Air Quality Not available.
Flu Activity Not available.
SPECI KAKQ 011013Z AUTO 00000KT 6SM BR OVC005 22/21 A3006 RMK AO2 CIG 003V010 T02220206 TSNO

10-Day Weather Forecast

×

Almanac

Astronomy

Sep. 01, 2015 Rise Set
Actual Time
Civil Twilight
Nautical Twilight
Astronomical Twilight
Moon
Length of Visible Light
Length of Day
Tomorrow will be .
, % of the Moon is Illuminated

Today's Extremes

State Highs State Lows

Community

WunderPhotos

Upload Photos

1,851,501 photos uploaded!

WunderBlogs® & News

Nearby

Air Quality

  Air Quality AQ Index Pollutant
Not available.

Snow Depth

Station Depth Elevation

Earthquake Activity

City Distance Mag. Time & Date
Minimum magnitude displayed is 2.5.

Coastal Water Temperatures

Place Temperature

Stations

Nearby Weather Stations

Station Location Temp. Windchill Dew Point Humidity Wind Precip. Elev Updated Type